Time;durP1;ratioP1;P1;durP2;ratioP2;P2;SDS_P1;SDS_P2;PMS_P1;PMS_P2;Temp;Humidity;BMP_temperature;BMP_pressure;BME280_temperature;BME280_humidity;BME280_pressure;Samples;Min_cycle;Max_cycle;Signal;HPM_P1;HPM_P2
2022/08/16 00:00:44;;;;;;;10.73;8.63;;;;;;;23.70;57.65;94510.28;5021979;28;20428;-55
2022/08/16 00:03:10;;;;;;;11.27;8.73;;;;;;;23.69;57.94;94514.25;5034723;28;20092;-55
2022/08/16 00:05:36;;;;;;;10.63;9.00;;;;;;;23.52;58.13;94500.19;5004671;28;20057;-55
2022/08/16 00:08:02;;;;;;;11.25;9.23;;;;;;;23.67;57.74;94511.34;5035317;28;20492;-55
2022/08/16 00:10:28;;;;;;;9.80;8.43;;;;;;;23.72;58.32;94529.56;5039722;28;20033;-54
2022/08/16 00:13:02;;;;;;;11.13;8.70;;;;;;;23.31;57.90;94458.44;5022846;28;20120;-55
2022/08/16 00:15:39;;;;;;;12.98;8.70;;;;;;;23.18;58.07;94433.88;5036963;28;20021;-54
2022/08/16 00:18:04;;;;;;;11.07;8.77;;;;;;;23.57;58.17;94512.97;5036815;28;20562;-55
2022/08/16 00:20:31;;;;;;;10.48;8.90;;;;;;;23.56;58.52;94506.06;5033886;28;20034;-54
2022/08/16 00:22:56;;;;;;;9.63;8.45;;;;;;;23.61;58.72;94532.47;5018403;28;20092;-54
2022/08/16 00:25:22;;;;;;;11.73;9.20;;;;;;;23.61;58.14;94518.84;5035071;28;20045;-55
2022/08/16 00:27:48;;;;;;;9.38;8.35;;;;;;;23.54;58.35;94508.56;5036355;28;20446;-55
2022/08/16 00:30:14;;;;;;;10.77;8.88;;;;;;;23.56;58.40;94522.41;5011417;28;20037;-56
2022/08/16 00:32:41;;;;;;;11.95;8.88;;;;;;;23.45;58.02;94507.00;5036182;28;20152;-55
2022/08/16 00:35:08;;;;;;;11.00;8.57;;;;;;;23.40;58.03;94498.91;5032077;28;20475;-54
2022/08/16 00:37:33;;;;;;;10.93;8.40;;;;;;;23.45;58.66;94522.59;5002729;28;20044;-54
2022/08/16 00:39:59;;;;;;;10.05;8.55;;;;;;;23.58;58.35;94530.78;5031273;28;20041;-56
2022/08/16 00:42:29;;;;;;;11.55;9.07;;;;;;;23.04;58.45;94459.63;5038164;28;20037;-54
2022/08/16 00:44:55;;;;;;;9.75;8.13;;;;;;;23.40;58.18;94507.06;5060250;28;20037;-54
2022/08/16 00:47:21;;;;;;;11.48;8.75;;;;;;;23.46;58.47;94532.25;5056016;28;20040;-55
2022/08/16 00:49:46;;;;;;;12.18;9.25;;;;;;;23.12;58.05;94482.28;5043109;28;20043;-54
2022/08/16 00:52:12;;;;;;;10.00;8.30;;;;;;;23.43;58.18;94530.56;5058981;28;20555;-55
2022/08/16 00:54:37;;;;;;;10.00;8.80;;;;;;;23.73;58.15;94552.88;5059090;28;20032;-54
2022/08/16 00:57:03;;;;;;;11.68;8.52;;;;;;;23.65;58.44;94543.84;5040868;28;20151;-54
2022/08/16 00:59:31;;;;;;;10.15;8.50;;;;;;;23.49;58.29;94542.09;5059459;28;20132;-55
2022/08/16 01:01:56;;;;;;;11.05;8.90;;;;;;;23.52;58.98;94549.97;5042477;28;20123;-55
2022/08/16 01:04:23;;;;;;;9.48;8.23;;;;;;;23.54;58.92;94554.88;5042986;28;20525;-54
2022/08/16 01:06:49;;;;;;;9.77;7.88;;;;;;;23.46;59.10;94551.31;5025750;28;20027;-54
2022/08/16 01:09:14;;;;;;;11.85;8.55;;;;;;;23.45;59.23;94549.84;5059982;28;20032;-53
2022/08/16 01:11:40;;;;;;;9.50;8.45;;;;;;;23.27;58.48;94528.81;5059883;28;20044;-55
2022/08/16 01:14:18;;;;;;;10.70;8.57;;;;;;;23.48;59.02;94554.25;5042822;28;20037;-55
2022/08/16 01:16:44;;;;;;;9.65;8.65;;;;;;;23.36;58.63;94542.06;5023100;28;20037;-54
2022/08/16 01:19:29;;;;;;;10.95;8.60;;;;;;;23.44;59.23;94559.28;5041909;28;20080;-54
2022/08/16 01:22:17;;;;;;;10.07;8.00;;;;;;;23.44;58.76;94570.19;5041654;28;20495;-55
2022/08/16 01:24:45;;;;;;;11.98;8.52;;;;;;;23.38;59.17;94564.09;5061698;28;20158;-55
2022/08/16 01:27:40;;;;;;;10.38;8.45;;;;;;;23.57;58.55;94567.47;5023398;28;20032;-53
2022/08/16 01:30:11;;;;;;;11.98;8.90;;;;;;;23.50;59.02;94568.09;5023278;28;20052;-55
2022/08/16 01:32:37;;;;;;;10.63;8.35;;;;;;;23.45;59.14;94560.75;5058305;28;20689;-55
2022/08/16 01:35:09;;;;;;;11.60;8.82;;;;;;;23.47;59.32;94569.16;5062267;28;20488;-55
2022/08/16 01:37:43;;;;;;;10.57;8.20;;;;;;;23.42;59.19;94567.22;5042285;28;20090;-55
2022/08/16 01:40:10;;;;;;;10.63;8.80;;;;;;;23.35;59.54;94564.38;5061032;28;20056;-54
2022/08/16 01:42:35;;;;;;;11.18;8.63;;;;;;;23.41;59.30;94571.94;5060127;28;20591;-55
2022/08/16 01:45:01;;;;;;;10.57;8.07;;;;;;;23.35;59.89;94570.56;5065364;28;20044;-54
2022/08/16 01:47:26;;;;;;;11.68;8.68;;;;;;;23.41;59.68;94571.22;5059429;28;20082;-53
2022/08/16 01:49:52;;;;;;;11.48;8.50;;;;;;;23.35;59.76;94567.84;5059073;28;20045;-54
2022/08/16 01:52:18;;;;;;;9.95;8.35;;;;;;;23.37;59.76;94570.78;5062921;28;20044;-55
2022/08/16 01:54:44;;;;;;;10.70;8.60;;;;;;;23.35;59.37;94578.75;5063520;28;20067;-55
2022/08/16 01:57:09;;;;;;;10.20;8.50;;;;;;;22.50;59.90;94452.31;5062863;28;20044;-52
2022/08/16 01:59:35;;;;;;;9.85;8.50;;;;;;;23.19;59.50;94544.31;5062545;28;20043;-55
2022/08/16 02:02:00;;;;;;;11.15;8.63;;;;;;;23.31;59.47;94572.84;5063360;28;20113;-55
2022/08/16 02:04:26;;;;;;;11.80;8.80;;;;;;;23.29;59.64;94569.19;5063431;28;20047;-55
2022/08/16 02:06:52;;;;;;;10.88;8.63;;;;;;;23.40;59.84;94583.38;5043061;28;20105;-55
2022/08/16 02:09:19;;;;;;;10.95;8.57;;;;;;;23.37;59.75;94594.59;5063743;28;20067;-55
2022/08/16 02:11:46;;;;;;;12.20;8.50;;;;;;;23.44;59.67;94597.44;5060354;28;20048;-54
2022/08/16 02:14:11;;;;;;;12.10;9.40;;;;;;;23.36;59.88;94602.00;5060274;28;20072;-54
2022/08/16 02:16:38;;;;;;;10.80;9.30;;;;;;;23.33;60.19;94592.13;5062793;28;20043;-55
2022/08/16 02:19:04;;;;;;;11.60;8.68;;;;;;;22.75;59.59;94527.13;5061793;28;20039;-55
2022/08/16 02:21:29;;;;;;;12.15;8.73;;;;;;;23.11;59.57;94572.69;5028243;28;20024;-54
2022/08/16 02:23:55;;;;;;;10.75;9.15;;;;;;;23.38;59.31;94622.03;5043900;28;20846;-55
2022/08/16 02:26:20;;;;;;;10.65;9.13;;;;;;;23.59;59.35;94646.75;5035733;28;20123;-54
2022/08/16 02:28:46;;;;;;;10.77;8.93;;;;;;;23.58;58.53;94645.28;5063059;28;20024;-55
2022/08/16 02:31:13;;;;;;;10.32;9.15;;;;;;;23.60;58.09;94648.22;5061894;28;20076;-55
2022/08/16 02:33:39;;;;;;;10.50;9.23;;;;;;;23.59;58.00;94649.47;5063412;28;20182;-55
2022/08/16 02:36:04;;;;;;;10.82;9.00;;;;;;;23.56;57.99;94636.88;5061672;28;20566;-54
2022/08/16 02:38:31;;;;;;;10.65;8.90;;;;;;;23.52;57.44;94636.44;5061984;28;20047;-55
2022/08/16 02:40:57;;;;;;;12.07;9.48;;;;;;;23.74;57.51;94657.94;5062228;28;20082;-54
2022/08/16 02:43:24;;;;;;;13.20;9.55;;;;;;;23.64;57.71;94626.88;5039641;28;20497;-55
2022/08/16 02:45:49;;;;;;;11.07;9.32;;;;;;;23.82;57.79;94642.44;5044540;28;20109;-54
2022/08/16 02:48:15;;;;;;;12.25;9.50;;;;;;;23.55;58.04;94613.59;5026939;28;20025;-55
2022/08/16 02:50:41;;;;;;;11.77;9.80;;;;;;;23.83;58.02;94635.75;5051993;28;20182;-54
2022/08/16 02:53:06;;;;;;;12.18;9.82;;;;;;;23.91;58.22;94640.03;5060350;28;20052;-55
2022/08/16 02:55:32;;;;;;;11.13;8.88;;;;;;;23.83;58.00;94622.13;5062926;28;20037;-55
2022/08/16 02:57:58;;;;;;;15.23;9.38;;;;;;;23.86;58.41;94630.69;5061107;28;20049;-54
2022/08/16 03:00:23;;;;;;;11.45;9.05;;;;;;;23.87;58.64;94632.19;5061804;28;20020;-54
2022/08/16 03:02:49;;;;;;;14.32;8.93;;;;;;;23.75;58.89;94604.88;5060366;28;20416;-54
2022/08/16 03:05:14;;;;;;;12.40;8.98;;;;;;;23.86;59.35;94629.97;5062430;28;20033;-53
2022/08/16 03:07:40;;;;;;;10.05;8.45;;;;;;;23.95;58.69;94624.84;5042097;28;20117;-54
2022/08/16 03:10:07;;;;;;;12.88;8.93;;;;;;;23.91;59.22;94618.22;5062383;28;20043;-55
2022/08/16 03:12:32;;;;;;;13.15;9.02;;;;;;;23.88;58.87;94602.91;5054663;28;20033;-54
2022/08/16 03:14:58;;;;;;;13.13;9.32;;;;;;;23.85;59.14;94608.69;5062282;28;20033;-54
2022/08/16 03:17:25;;;;;;;12.00;9.07;;;;;;;23.84;59.54;94607.97;5060236;28;20033;-55
2022/08/16 03:19:52;;;;;;;11.20;9.15;;;;;;;23.71;59.62;94574.47;5059750;28;20407;-54
2022/08/16 03:22:18;;;;;;;10.43;8.93;;;;;;;23.81;59.90;94591.88;5061145;28;20032;-55
2022/08/16 03:24:44;;;;;;;10.30;8.60;;;;;;;23.88;60.14;94592.75;5061453;28;20108;-54
2022/08/16 03:27:09;;;;;;;10.57;8.75;;;;;;;23.83;60.06;94603.03;5061824;28;20028;-53
2022/08/16 03:29:35;;;;;;;10.60;8.77;;;;;;;23.86;60.29;94599.25;5057798;28;20544;-55
2022/08/16 03:32:00;;;;;;;10.73;8.55;;;;;;;23.36;60.46;94542.06;5060283;28;20107;-54
2022/08/16 03:34:26;;;;;;;9.82;8.63;;;;;;;23.78;60.42;94593.69;5064044;28;20040;-55
2022/08/16 03:36:52;;;;;;;11.68;9.02;;;;;;;23.86;60.74;94607.44;5065212;28;20055;-54
2022/08/16 03:39:17;;;;;;;10.20;8.40;;;;;;;23.89;60.13;94598.94;5048300;28;20456;-55
2022/08/16 03:41:43;;;;;;;11.38;8.57;;;;;;;23.82;60.28;94596.09;5057747;28;20098;-53
2022/08/16 03:44:08;;;;;;;10.20;9.10;;;;;;;23.88;60.26;94603.66;5062544;28;20041;-54
2022/08/16 03:46:34;;;;;;;10.20;8.38;;;;;;;23.88;60.68;94613.81;5064016;28;20048;-55
2022/08/16 03:48:59;;;;;;;11.43;9.15;;;;;;;23.88;60.00;94609.13;5043617;28;20048;-54
2022/08/16 03:51:25;;;;;;;9.27;8.15;;;;;;;23.69;60.15;94585.16;5059116;28;20531;-53
2022/08/16 03:53:50;;;;;;;11.23;8.95;;;;;;;23.67;60.34;94582.94;5061565;28;20503;-52
2022/08/16 03:56:16;;;;;;;12.50;9.18;;;;;;;23.87;60.21;94624.00;5057477;28;20099;-54
2022/08/16 03:58:41;;;;;;;11.95;8.60;;;;;;;23.80;60.56;94599.34;5059518;28;20106;-53
2022/08/16 04:01:07;;;;;;;11.25;9.15;;;;;;;23.96;59.66;94609.97;5059139;28;20117;-54
2022/08/16 04:03:33;;;;;;;10.57;7.93;;;;;;;23.96;59.90;94609.97;5042261;28;20032;-55
2022/08/16 04:05:58;;;;;;;10.25;8.43;;;;;;;23.83;60.27;94600.28;5059001;28;20044;-54
2022/08/16 04:08:24;;;;;;;11.85;8.68;;;;;;;23.70;60.29;94581.16;5059553;28;20507;-54
2022/08/16 04:10:50;;;;;;;10.45;8.63;;;;;;;23.73;60.31;94574.69;5061382;28;20181;-53
2022/08/16 04:13:15;;;;;;;11.68;9.05;;;;;;;23.74;60.66;94581.63;5056513;28;20075;-54
2022/08/16 04:15:41;;;;;;;9.60;8.32;;;;;;;23.84;60.70;94599.03;5028092;28;20059;-53
2022/08/16 04:18:06;;;;;;;11.13;8.85;;;;;;;23.70;60.57;94576.44;5062040;28;20491;-53
2022/08/16 04:20:32;;;;;;;11.77;8.73;;;;;;;23.83;60.43;94583.94;5061875;28;20085;-53
2022/08/16 04:22:58;;;;;;;11.05;8.20;;;;;;;23.97;60.32;94600.50;5039995;28;20103;-54
2022/08/16 04:25:24;;;;;;;9.57;8.23;;;;;;;23.27;60.69;94493.41;5062632;28;20040;-53
2022/08/16 04:27:49;;;;;;;10.02;8.50;;;;;;;23.27;60.44;94495.41;5060296;28;20039;-55
2022/08/16 04:30:16;;;;;;;10.63;8.68;;;;;;;23.92;60.37;94598.63;5062300;28;20718;-53
2022/08/16 04:32:41;;;;;;;9.60;8.60;;;;;;;24.02;60.25;94610.59;5056274;28;20040;-54
2022/08/16 04:35:09;;;;;;;12.18;8.90;;;;;;;24.00;60.56;94610.38;5061485;28;20045;-55
2022/08/16 04:37:35;;;;;;;10.50;8.57;;;;;;;23.84;61.37;94601.75;5057187;28;20052;-53
2022/08/16 04:40:00;;;;;;;10.70;8.80;;;;;;;23.75;61.62;94574.88;5061969;28;20032;-55
2022/08/16 04:42:26;;;;;;;11.40;8.80;;;;;;;24.00;61.27;94604.19;5059473;28;20400;-55
2022/08/16 04:44:52;;;;;;;11.32;9.02;;;;;;;23.70;61.51;94559.38;5026093;28;20037;-55
2022/08/16 04:47:17;;;;;;;10.38;9.10;;;;;;;24.04;61.45;94588.97;5037915;28;20110;-53
2022/08/16 04:49:43;;;;;;;10.32;9.25;;;;;;;23.53;61.41;94518.00;5045155;28;20102;-54
2022/08/16 04:52:09;;;;;;;10.38;8.43;;;;;;;24.04;61.43;94613.53;5051846;28;20110;-54
2022/08/16 04:54:34;;;;;;;11.43;9.18;;;;;;;23.91;61.24;94588.94;5063205;28;20029;-55
2022/08/16 04:57:00;;;;;;;12.13;9.00;;;;;;;23.89;61.72;94585.28;5064259;28;20037;-55
2022/08/16 04:59:25;;;;;;;12.73;9.43;;;;;;;24.00;62.16;94604.19;5062414;28;20045;-55
2022/08/16 05:01:55;;;;;;;11.57;9.98;;;;;;;24.07;62.04;94620.66;5063477;28;20056;-54
2022/08/16 05:04:21;;;;;;;;;;;;;;;23.99;62.35;94619.81;5066029;28;20102;-55
2022/08/16 05:06:46;;;;;;;11.45;9.45;;;;;;;24.03;62.73;94631.16;5047698;28;19916;-53
2022/08/16 05:09:12;;;;;;;10.70;9.43;;;;;;;23.53;62.07;94539.81;5066342;28;20020;-55
2022/08/16 05:11:37;;;;;;;16.17;11.00;;;;;;;23.50;62.36;94529.94;5060699;28;20490;-55
2022/08/16 05:14:03;;;;;;;13.07;10.50;;;;;;;24.09;62.50;94631.06;5063946;28;20037;-55
2022/08/16 05:16:29;;;;;;;15.90;10.70;;;;;;;24.20;62.08;94631.59;5065344;28;20041;-54
2022/08/16 05:18:56;;;;;;;14.38;10.90;;;;;;;24.18;62.21;94615.00;5065294;28;20115;-55
2022/08/16 05:21:21;;;;;;;14.88;11.02;;;;;;;24.32;61.95;94627.41;5046697;28;20029;-53
2022/08/16 05:23:48;;;;;;;13.68;10.80;;;;;;;24.27;61.36;94633.69;5065835;28;20396;-53
2022/08/16 05:26:14;;;;;;;13.18;10.75;;;;;;;24.39;60.88;94634.97;5057543;28;21222;-54
2022/08/16 05:28:39;;;;;;;15.00;10.68;;;;;;;24.36;61.38;94631.34;5065795;28;20590;-53
2022/08/16 05:31:05;;;;;;;16.10;11.23;;;;;;;24.50;62.20;94630.06;5043966;28;20118;-54
2022/08/16 05:33:30;;;;;;;13.25;11.32;;;;;;;24.54;61.32;94635.19;5060727;28;20024;-53
2022/08/16 05:35:55;;;;;;;12.13;10.00;;;;;;;24.69;60.82;94635.41;5050766;28;20518;-53
2022/08/16 05:38:26;;;;;;;13.73;10.90;;;;;;;24.74;60.87;94626.34;5056617;28;20036;-53
2022/08/16 05:40:55;;;;;;;12.90;10.50;;;;;;;24.76;60.50;94623.84;5033587;28;20037;-54
2022/08/16 05:43:21;;;;;;;12.93;10.60;;;;;;;24.92;60.58;94626.97;5051627;28;20040;-53
2022/08/16 05:45:46;;;;;;;14.13;10.55;;;;;;;24.93;59.94;94633.91;5055355;28;20527;-53
2022/08/16 05:48:12;;;;;;;13.02;9.90;;;;;;;24.99;59.65;94631.81;5051208;28;20448;-54
2022/08/16 05:50:38;;;;;;;15.48;11.60;;;;;;;25.04;59.14;94630.22;5054208;28;20040;-54
2022/08/16 05:53:03;;;;;;;16.50;10.35;;;;;;;25.03;58.86;94615.81;5056955;28;20041;-53
2022/08/16 05:55:29;;;;;;;16.30;10.95;;;;;;;25.14;59.04;94621.06;5063048;28;20043;-53
2022/08/16 05:57:54;;;;;;;12.95;11.38;;;;;;;25.16;58.95;94629.47;5063891;28;20012;-53
2022/08/16 06:00:20;;;;;;;14.98;11.30;;;;;;;25.13;59.13;94625.06;5060183;28;20024;-54
2022/08/16 06:02:46;;;;;;;13.07;10.88;;;;;;;25.38;58.32;94626.97;5056353;28;20582;-55
2022/08/16 06:05:11;;;;;;;16.25;11.55;;;;;;;25.50;57.96;94630.16;5064253;28;20036;-56
2022/08/16 06:07:37;;;;;;;14.38;11.02;;;;;;;25.54;57.60;94636.03;5046529;28;20044;-56
2022/08/16 06:10:03;;;;;;;13.60;11.40;;;;;;;25.64;57.21;94631.59;5041425;28;20740;-53
2022/08/16 06:12:29;;;;;;;12.70;10.60;;;;;;;25.71;57.08;94630.94;5059714;28;20087;-54
2022/08/16 06:15:02;;;;;;;12.50;10.77;;;;;;;25.75;57.12;94629.34;5058796;28;20037;-53
2022/08/16 06:17:28;;;;;;;14.90;10.60;;;;;;;25.86;56.49;94629.81;5064725;28;20074;-56
2022/08/16 06:19:54;;;;;;;11.90;10.13;;;;;;;25.28;56.62;94543.22;5062210;28;20028;-56
2022/08/16 06:22:19;;;;;;;14.77;10.75;;;;;;;25.86;57.25;94629.81;5053058;28;20041;-56
2022/08/16 06:24:45;;;;;;;12.73;10.55;;;;;;;25.82;56.99;94613.00;5050261;28;20013;-56
2022/08/16 06:27:10;;;;;;;14.13;10.43;;;;;;;26.00;56.60;94623.00;5050387;28;20029;-56
2022/08/16 06:29:36;;;;;;;11.48;9.77;;;;;;;26.05;56.67;94613.94;5053390;28;20462;-56
2022/08/16 06:32:02;;;;;;;14.80;10.63;;;;;;;26.22;55.96;94622.44;5048184;28;20056;-58
2022/08/16 06:34:27;;;;;;;14.25;10.57;;;;;;;26.21;55.85;94620.97;5056150;28;20040;-56
2022/08/16 06:36:53;;;;;;;12.85;10.20;;;;;;;26.14;55.86;94613.41;5032785;28;20066;-56
2022/08/16 06:39:18;;;;;;;14.18;9.90;;;;;;;25.88;55.50;94586.22;5058348;28;20048;-56
2022/08/16 06:41:44;;;;;;;13.50;10.23;;;;;;;26.03;55.76;94618.47;5056496;28;20175;-55
2022/08/16 06:44:09;;;;;;;13.68;10.70;;;;;;;25.95;55.54;94626.59;5060239;28;20055;-54
2022/08/16 06:46:36;;;;;;;12.98;10.02;;;;;;;25.73;55.60;94592.88;5058077;28;20581;-53
2022/08/16 06:49:03;;;;;;;13.50;10.25;;;;;;;25.75;55.86;94595.78;5037460;28;20041;-53
2022/08/16 06:51:28;;;;;;;13.52;10.02;;;;;;;25.84;55.99;94610.47;5041024;28;20551;-54
2022/08/16 06:53:54;;;;;;;12.23;9.38;;;;;;;25.55;56.71;94610.91;5055429;28;20045;-56
2022/08/16 06:56:19;;;;;;;12.82;9.55;;;;;;;25.72;56.36;94607.81;5050219;28;20032;-54
2022/08/16 06:58:45;;;;;;;12.02;9.70;;;;;;;25.80;56.64;94604.59;5045233;28;20036;-54
2022/08/16 07:01:10;;;;;;;13.55;9.23;;;;;;;25.87;55.88;94598.47;5056954;28;21497;-55
2022/08/16 07:03:36;;;;;;;13.75;9.50;;;;;;;25.99;55.70;94594.19;5044254;28;20032;-54
2022/08/16 07:06:02;;;;;;;13.77;10.07;;;;;;;25.90;56.06;94586.44;5062974;28;20488;-54
2022/08/16 07:08:27;;;;;;;11.85;10.52;;;;;;;25.90;56.40;94591.91;5063565;28;20032;-54
2022/08/16 07:10:53;;;;;;;11.20;10.02;;;;;;;25.91;56.19;94593.38;5061187;28;20067;-55
2022/08/16 07:13:19;;;;;;;15.48;10.07;;;;;;;25.80;56.06;94590.91;5044051;28;20045;-55
2022/08/16 07:15:45;;;;;;;14.52;11.15;;;;;;;25.71;56.31;94595.38;5060927;28;20059;-54
2022/08/16 07:18:10;;;;;;;17.17;11.02;;;;;;;25.71;56.93;94595.38;5049905;28;20064;-55
2022/08/16 07:20:37;;;;;;;15.00;10.13;;;;;;;25.73;56.38;94587.41;5055924;28;20519;-56
2022/08/16 07:23:05;;;;;;;15.18;10.68;;;;;;;25.76;56.55;94580.84;5029700;28;20123;-55
2022/08/16 07:25:31;;;;;;;14.35;10.55;;;;;;;25.66;56.42;94582.59;5050179;28;20033;-55
2022/08/16 07:27:57;;;;;;;12.77;10.65;;;;;;;25.72;56.26;94575.69;5016754;28;20397;-55
2022/08/16 07:30:22;;;;;;;12.95;10.38;;;;;;;25.72;56.00;94572.97;5060350;28;20730;-56
2022/08/16 07:32:49;;;;;;;11.77;9.73;;;;;;;25.61;56.48;94573.22;5058858;28;20449;-55
2022/08/16 07:35:15;;;;;;;13.35;10.55;;;;;;;25.49;56.76;94552.16;5057512;28;20063;-56
2022/08/16 07:37:41;;;;;;;10.60;9.35;;;;;;;25.77;56.37;94576.84;5049356;28;20116;-56
2022/08/16 07:40:07;;;;;;;13.80;10.13;;;;;;;25.81;56.23;94578.72;5040752;28;20443;-56
2022/08/16 07:42:33;;;;;;;13.23;9.70;;;;;;;25.80;56.08;94574.50;5056456;28;20047;-56
2022/08/16 07:44:58;;;;;;;12.20;9.40;;;;;;;25.80;56.28;94582.72;5067303;28;20450;-55
2022/08/16 07:47:24;;;;;;;12.55;9.43;;;;;;;25.80;56.57;94587.47;5057488;28;20033;-56
2022/08/16 07:49:50;;;;;;;14.30;9.88;;;;;;;25.47;56.29;94527.31;5061728;28;20044;-54
2022/08/16 07:52:15;;;;;;;12.10;9.85;;;;;;;25.74;56.85;94578.66;5058539;28;20040;-55
2022/08/16 07:54:40;;;;;;;14.05;10.50;;;;;;;25.82;56.51;94580.16;5061445;28;20032;-55
2022/08/16 07:57:06;;;;;;;12.57;9.50;;;;;;;25.80;56.55;94587.47;5061271;28;20035;-55
2022/08/16 07:59:32;;;;;;;14.85;9.90;;;;;;;25.82;56.80;94585.63;5043810;28;20043;-55
2022/08/16 08:01:57;;;;;;;12.32;9.07;;;;;;;25.72;56.64;94569.50;5061345;28;20149;-55
2022/08/16 08:04:22;;;;;;;12.25;9.05;;;;;;;25.90;56.30;94586.44;5062416;28;20530;-53
2022/08/16 08:06:48;;;;;;;12.15;9.90;;;;;;;25.73;56.12;94565.50;5061511;28;20478;-54
2022/08/16 08:09:13;;;;;;;13.98;9.70;;;;;;;25.90;56.00;94586.44;5063268;28;20071;-53
2022/08/16 08:11:39;;;;;;;15.02;10.07;;;;;;;25.89;56.30;94589.72;5059779;28;20090;-55
2022/08/16 08:14:04;;;;;;;14.13;9.10;;;;;;;25.92;56.10;94583.91;5056352;28;20036;-55
2022/08/16 08:16:31;;;;;;;13.55;9.63;;;;;;;25.93;56.20;94584.63;5059320;28;20040;-55
2022/08/16 08:18:57;;;;;;;12.50;9.13;;;;;;;25.91;55.88;94587.91;5060971;28;20028;-54
2022/08/16 08:21:23;;;;;;;10.15;9.05;;;;;;;26.01;55.73;94580.69;5060620;28;20020;-54
2022/08/16 08:23:49;;;;;;;10.65;9.35;;;;;;;25.97;55.78;94574.81;5064476;28;20040;-54
2022/08/16 08:26:16;;;;;;;11.68;8.63;;;;;;;25.93;55.51;94579.91;5067663;28;20576;-56
2022/08/16 08:28:42;;;;;;;12.18;8.90;;;;;;;25.89;56.15;94587.72;5062791;28;20029;-54
2022/08/16 08:31:07;;;;;;;11.65;8.80;;;;;;;25.89;55.71;94579.50;5060458;28;20129;-54
2022/08/16 08:33:33;;;;;;;10.65;8.40;;;;;;;25.63;56.40;94550.81;5066359;28;20032;-54
2022/08/16 08:36:00;;;;;;;9.75;8.10;;;;;;;25.88;56.23;94578.03;5044509;28;20134;-54
2022/08/16 08:38:26;;;;;;;11.05;8.45;;;;;;;25.91;55.82;94566.00;5045085;28;20131;-54
2022/08/16 08:40:52;;;;;;;10.68;9.10;;;;;;;25.93;55.84;94590.84;5064647;28;20063;-54
2022/08/16 08:43:17;;;;;;;9.85;8.65;;;;;;;25.88;55.80;94567.06;5061402;28;20083;-56
2022/08/16 08:45:43;;;;;;;9.13;8.15;;;;;;;25.79;55.09;94546.97;5066361;28;20059;-55
2022/08/16 08:48:09;;;;;;;9.27;8.10;;;;;;;26.03;54.71;94578.13;5066925;28;20023;-54
2022/08/16 08:50:35;;;;;;;10.90;8.35;;;;;;;26.00;54.85;94579.22;5051827;28;20070;-54
2022/08/16 08:53:01;;;;;;;11.73;8.02;;;;;;;25.98;54.48;94586.50;5060148;28;20041;-53
2022/08/16 08:55:27;;;;;;;9.82;7.57;;;;;;;25.91;54.88;94582.41;5068575;28;20041;-54
2022/08/16 08:57:52;;;;;;;8.02;6.85;;;;;;;25.93;54.12;94584.63;5068639;28;20032;-55
2022/08/16 09:00:19;;;;;;;7.85;6.88;;;;;;;25.42;53.69;94498.13;5070204;28;20032;-55
2022/08/16 09:02:45;;;;;;;11.50;6.72;;;;;;;25.81;54.04;94562.31;5060038;28;20104;-54
2022/08/16 09:05:13;;;;;;;11.40;7.55;;;;;;;25.99;53.50;94572.28;5066478;28;20997;-54
2022/08/16 09:07:39;;;;;;;7.50;6.53;;;;;;;26.06;53.32;94577.06;5064835;28;20117;-55
2022/08/16 09:10:05;;;;;;;8.68;6.07;;;;;;;26.00;53.16;94584.69;5046997;28;20106;-54
2022/08/16 09:12:30;;;;;;;10.20;6.88;;;;;;;26.10;53.06;94572.00;5055548;28;20036;-54
2022/08/16 09:14:56;;;;;;;8.45;6.20;;;;;;;26.15;52.75;94584.78;5063543;28;20032;-54
2022/08/16 09:17:23;;;;;;;9.93;7.00;;;;;;;26.16;52.57;94580.78;5063855;28;20029;-53
2022/08/16 09:19:49;;;;;;;7.65;5.93;;;;;;;26.21;52.58;94588.09;5066941;28;20039;-54
2022/08/16 09:22:15;;;;;;;8.25;6.18;;;;;;;26.09;52.13;94548.63;5066308;28;20045;-54
2022/08/16 09:24:40;;;;;;;8.10;5.85;;;;;;;26.30;51.62;94563.00;5068426;28;20396;-55
2022/08/16 09:27:06;;;;;;;7.78;6.40;;;;;;;26.51;51.74;94593.78;5064712;28;20040;-54
2022/08/16 09:29:31;;;;;;;8.30;5.95;;;;;;;26.58;51.40;94576.69;5066171;28;20086;-55
2022/08/16 09:31:57;;;;;;;7.97;6.35;;;;;;;26.75;50.40;94576.94;5061706;28;20037;-54
2022/08/16 09:34:23;;;;;;;6.32;5.53;;;;;;;26.77;50.92;94572.38;5065895;28;20037;-55
2022/08/16 09:36:49;;;;;;;6.60;5.68;;;;;;;26.82;49.83;94583.16;5064285;28;21350;-55
2022/08/16 09:39:16;;;;;;;6.68;5.38;;;;;;;26.71;49.54;94554.63;5066024;28;20057;-55
2022/08/16 09:41:48;;;;;;;7.13;5.35;;;;;;;26.97;49.47;94577.78;5062353;28;20051;-54
2022/08/16 09:44:14;;;;;;;7.95;5.88;;;;;;;27.06;49.21;94577.25;5057235;28;20057;-55
2022/08/16 09:46:39;;;;;;;7.43;6.00;;;;;;;27.04;48.85;94577.06;5052480;28;20035;-54
2022/08/16 09:49:05;;;;;;;8.65;5.60;;;;;;;26.43;49.41;94480.75;5052607;28;20103;-54
2022/08/16 09:51:30;;;;;;;9.10;5.88;;;;;;;27.30;48.30;94568.53;5058587;28;20032;-54
2022/08/16 09:53:56;;;;;;;6.80;5.57;;;;;;;27.39;48.32;94576.22;5049389;28;20065;-54
2022/08/16 09:56:27;;;;;;;7.50;5.95;;;;;;;27.47;48.09;94572.22;5042757;28;20162;-53
2022/08/16 09:58:53;;;;;;;7.63;5.53;;;;;;;27.48;47.71;94586.66;5043900;28;20025;-52
2022/08/16 10:01:19;;;;;;;7.65;5.47;;;;;;;27.40;47.48;94564.00;5046057;28;20633;-53
2022/08/16 10:03:44;;;;;;;5.90;5.22;;;;;;;27.59;47.85;94578.13;5062769;28;20033;-54
2022/08/16 10:06:10;;;;;;;5.85;4.47;;;;;;;27.67;46.99;94578.84;5062873;28;20418;-54
2022/08/16 10:08:35;;;;;;;6.45;5.40;;;;;;;27.75;46.43;94581.03;5064420;28;20170;-54
2022/08/16 10:13:45;;;;;;;7.28;5.32;;;;;;;27.82;46.76;94563.84;5059486;28;20039;-54
2022/08/16 10:16:12;;;;;;;6.35;5.10;;;;;;;27.79;46.50;94556.72;5062994;28;20033;-54
2022/08/16 10:18:38;;;;;;;6.13;5.50;;;;;;;28.04;45.45;94574.09;5022505;28;20411;-53
2022/08/16 10:21:04;;;;;;;6.15;4.95;;;;;;;28.06;45.16;94566.03;5061528;28;20048;-53
2022/08/16 10:23:30;;;;;;;6.25;5.57;;;;;;;28.07;45.65;94567.50;5054033;28;20041;-54
2022/08/16 10:25:55;;;;;;;6.10;5.15;;;;;;;28.07;46.16;94567.50;5056402;28;20036;-53
2022/08/16 10:28:21;;;;;;;5.97;4.93;;;;;;;28.18;45.45;94569.19;5052868;28;20041;-54
2022/08/16 10:30:46;;;;;;;6.63;5.28;;;;;;;28.25;44.85;94566.41;5034624;28;20013;-54
2022/08/16 10:33:12;;;;;;;5.60;5.00;;;;;;;28.27;45.50;94552.84;5064524;28;20066;-54
2022/08/16 10:35:39;;;;;;;8.02;5.18;;;;;;;28.42;44.80;94569.31;5061523;28;20028;-54
2022/08/16 10:38:04;;;;;;;5.82;5.22;;;;;;;28.38;44.64;94563.44;5057929;28;20059;-54
2022/08/16 10:40:30;;;;;;;6.03;4.97;;;;;;;28.44;44.68;94572.22;5057303;28;20488;-55
2022/08/16 10:42:59;;;;;;;6.47;5.00;;;;;;;28.48;43.86;94569.84;5057070;28;20045;-54
2022/08/16 10:45:25;;;;;;;6.23;5.00;;;;;;;28.41;44.44;94567.84;5059446;28;20039;-54
2022/08/16 10:47:50;;;;;;;7.05;5.13;;;;;;;28.27;44.29;94570.06;5061364;28;20283;-55
2022/08/16 10:50:16;;;;;;;6.20;5.30;;;;;;;28.06;44.58;94552.31;5056046;28;20040;-54
2022/08/16 10:52:42;;;;;;;5.80;4.70;;;;;;;28.29;45.00;94566.75;5044408;28;20078;-54
2022/08/16 10:55:09;;;;;;;7.70;5.03;;;;;;;28.21;45.22;94566.06;5060471;28;20102;-54
2022/08/16 10:57:34;;;;;;;7.47;4.93;;;;;;;28.24;44.92;94570.44;5056535;28;20028;-54
2022/08/16 11:00:02;;;;;;;6.85;5.60;;;;;;;28.23;45.40;94568.97;5039730;28;20030;-54
2022/08/16 11:02:28;;;;;;;6.35;5.22;;;;;;;28.05;45.75;94548.09;5062620;28;20047;-54
2022/08/16 11:04:53;;;;;;;6.70;5.47;;;;;;;28.10;45.77;94577.44;5063587;28;20522;-54
2022/08/16 11:07:19;;;;;;;6.47;5.32;;;;;;;28.08;45.96;94574.44;5062942;28;20028;-58
2022/08/16 11:09:45;;;;;;;7.15;5.55;;;;;;;27.79;46.31;94559.47;5063521;28;20023;-54
2022/08/16 11:12:11;;;;;;;6.65;5.97;;;;;;;27.35;45.94;94482.59;5053782;28;20072;-55
2022/08/16 11:14:37;;;;;;;7.80;5.80;;;;;;;27.88;46.29;94560.94;5062520;28;20048;-55
2022/08/16 11:17:04;;;;;;;6.78;5.30;;;;;;;27.84;46.60;94561.28;5062546;28;20067;-55
2022/08/16 11:19:29;;;;;;;7.75;5.20;;;;;;;27.68;47.08;94561.84;5061902;28;20040;-55
2022/08/16 11:21:55;;;;;;;7.03;5.60;;;;;;;27.64;47.24;94564.22;5060676;28;20380;-55
2022/08/16 11:24:21;;;;;;;6.68;5.30;;;;;;;27.70;47.38;94555.78;5062059;28;20574;-55